Watervliet, MI (49098)

2:58 PM EST on December 28, 2014 (GMT -0500)
MesoWest Bainbridge MI US MAWN | Change Station
CLOSE
Current Station
Personal Weather Station
Location: Watervliet, MI
Elevation: 737 ft
Nearby Weather Stations

Elev 737 ft 42.13 °N, 86.27 °W | Updated 2 hours ago

Partly Cloudy
Partly Cloudy
32 °F
Feels Like 26 °F
N
7
Wind Variable Wind from WSW
Gusts 0.0 mph

Today
High -- | Low -- °F
--% Chance of Precip.
Yesterday
High -- | Low -- °F
Precip. -- in
8:13 AM 5:20 PM
Waxing Crescent, 51% visible
Pressure 30.17 in
Visibility 10.0 miles
Clouds Few 2100 ft
Windchill 26 °F
Dew Point 24 °F
Humidity 73%
Rainfall -999.00 in
Snow Depth Not available.
UV 1 out of 12
Pollen .10 out of 12
Air Quality Not available.
Flu Activity Not available.
METAR KBEH 281953Z AUTO 24010KT 10SM FEW021 M01/M05 A3014 RMK AO2 SLP214 T10061050

More Conditions Fewer Conditions

Pressure 30.17 in
Visibility 10.0 miles
Clouds Few 2100 ft
Windchill 26 °F
Dew Point 24 °F
Humidity 73%
Rainfall -999.00 in
Snow Depth Not available.
UV 1 out of 12
Pollen .10 out of 12
Air Quality Not available.
Flu Activity Not available.
METAR KBEH 281953Z AUTO 24010KT 10SM FEW021 M01/M05 A3014 RMK AO2 SLP214 T10061050

More Conditions Fewer Conditions

10-Day Weather Forecast

Almanac

Astronomy

Dec. 28, 2014 Rise Set
Actual Time
Civil Twilight
Nautical Twilight
Astronomical Twilight
Moon
Length of Visible Light
Length of Day
Tomorrow will be .
, % of the Moon is Illuminated

Today's Extremes

State Highs State Lows

Community

WunderPhotos

Upload Photos

1,781,402 photos uploaded!

WunderBlogs® & News

Nearby

Air Quality

  Air Quality AQ Index Pollutant
Not available.

Snow Depth

Station Depth Elevation

Earthquake Activity

City Distance Mag. Time & Date
Minimum magnitude displayed is 2.5.

Coastal Water Temperatures

Place Temperature

Nearby Weather Stations